sensor_id;sensor_type;location;lat;lon;timestamp;pressure;altitude;pressure_sealevel;temperature;humidity
71638;BME280;59485;43.542;-5.676;2023-05-23T00:00:54;101881.47;;;15.86;nan
71638;BME280;59485;43.542;-5.676;2023-05-23T00:03:23;101883.56;;;15.84;nan
71638;BME280;59485;43.542;-5.676;2023-05-23T00:05:49;101883.56;;;15.84;nan
71638;BME280;59485;43.542;-5.676;2023-05-23T01:05:43;101838.78;;;15.53;nan
71638;BME280;59485;43.542;-5.676;2023-05-23T01:08:08;101852.13;;;15.64;nan
71638;BME280;59485;43.542;-5.676;2023-05-23T01:10:34;101857.19;;;15.60;nan
71638;BME280;59485;43.542;-5.676;2023-05-23T01:13:14;101865.09;;;15.63;nan
71638;BME280;59485;43.542;-5.676;2023-05-23T01:16:06;101873.44;;;15.70;nan
71638;BME280;59485;43.542;-5.676;2023-05-23T01:18:42;101842.59;;;15.52;nan
71638;BME280;59485;43.542;-5.676;2023-05-23T01:21:12;101856.19;;;15.68;nan
71638;BME280;59485;43.542;-5.676;2023-05-23T01:28:59;101849.59;;;15.69;nan
71638;BME280;59485;43.542;-5.676;2023-05-23T01:31:31;101855.13;;;15.69;nan
71638;BME280;59485;43.542;-5.676;2023-05-23T01:33:59;101819.72;;;15.58;nan
71638;BME280;59485;43.542;-5.676;2023-05-23T01:36:25;101838.56;;;15.69;nan
71638;BME280;59485;43.542;-5.676;2023-05-23T01:38:50;101831.91;;;15.63;nan
71638;BME280;59485;43.542;-5.676;2023-05-23T01:41:16;101833.41;;;15.66;nan
71638;BME280;59485;43.542;-5.676;2023-05-23T01:43:41;101846.66;;;15.70;nan
71638;BME280;59485;43.542;-5.676;2023-05-23T01:46:07;101842.38;;;15.68;nan
71638;BME280;59485;43.542;-5.676;2023-05-23T01:48:37;101815.47;;;15.55;nan
71638;BME280;59485;43.542;-5.676;2023-05-23T01:51:03;101831.59;;;15.73;nan
71638;BME280;59485;43.542;-5.676;2023-05-23T01:53:29;101826.69;;;15.75;nan
71638;BME280;59485;43.542;-5.676;2023-05-23T01:55:56;101811.38;;;15.72;nan
71638;BME280;59485;43.542;-5.676;2023-05-23T01:58:21;101813.28;;;15.72;nan
71638;BME280;59485;43.542;-5.676;2023-05-23T02:00:47;101813.28;;;15.72;nan
71638;BME280;59485;43.542;-5.676;2023-05-23T02:03:12;101824.59;;;15.77;nan
71638;BME280;59485;43.542;-5.676;2023-05-23T02:05:38;101823.53;;;15.78;nan
71638;BME280;59485;43.542;-5.676;2023-05-23T02:08:04;101819.72;;;15.79;nan
71638;BME280;59485;43.542;-5.676;2023-05-23T02:10:29;101838.28;;;15.85;nan
71638;BME280;59485;43.542;-5.676;2023-05-23T02:12:55;101834.88;;;15.83;nan
71638;BME280;59485;43.542;-5.676;2023-05-23T02:15:20;101810.56;;;15.79;nan
71638;BME280;59485;43.542;-5.676;2023-05-23T02:17:46;101815.91;;;15.80;nan
71638;BME280;59485;43.542;-5.676;2023-05-23T02:20:12;101795.22;;;15.76;nan
71638;BME280;59485;43.542;-5.676;2023-05-23T02:22:38;101815.09;;;15.86;nan
71638;BME280;59485;43.542;-5.676;2023-05-23T02:25:04;101801.63;;;15.76;nan
71638;BME280;59485;43.542;-5.676;2023-05-23T02:27:30;101807.28;;;15.90;nan
71638;BME280;59485;43.542;-5.676;2023-05-23T02:29:55;101804.22;;;15.85;nan
71638;BME280;59485;43.542;-5.676;2023-05-23T02:32:21;101795.22;;;15.76;nan
71638;BME280;59485;43.542;-5.676;2023-05-23T02:34:46;101811.28;;;15.87;nan
71638;BME280;59485;43.542;-5.676;2023-05-23T02:37:14;101792.28;;;15.77;nan
71638;BME280;59485;43.542;-5.676;2023-05-23T02:39:41;101808.53;;;15.87;nan
71638;BME280;59485;43.542;-5.676;2023-05-23T02:42:07;101812.81;;;15.90;nan
71638;BME280;59485;43.542;-5.676;2023-05-23T02:44:32;101784.44;;;15.81;nan
71638;BME280;59485;43.542;-5.676;2023-05-23T02:46:58;101798.06;;;15.83;nan
71638;BME280;59485;43.542;-5.676;2023-05-23T02:49:23;101797.84;;;15.84;nan
71638;BME280;59485;43.542;-5.676;2023-05-23T02:51:49;101787.59;;;15.78;nan
71638;BME280;59485;43.542;-5.676;2023-05-23T02:54:14;101793.16;;;15.85;nan
71638;BME280;59485;43.542;-5.676;2023-05-23T02:56:41;101799.97;;;15.82;nan
71638;BME280;59485;43.542;-5.676;2023-05-23T02:59:06;101819.97;;;15.84;nan
71638;BME280;59485;43.542;-5.676;2023-05-23T03:01:31;101807.63;;;15.80;nan
71638;BME280;59485;43.542;-5.676;2023-05-23T03:03:57;101801.22;;;15.80;nan
71638;BME280;59485;43.542;-5.676;2023-05-23T03:06:22;101815.53;;;15.83;nan
71638;BME280;59485;43.542;-5.676;2023-05-23T03:08:48;101800.59;;;15.84;nan
71638;BME280;59485;43.542;-5.676;2023-05-23T03:11:14;101798.31;;;15.88;nan
71638;BME280;59485;43.542;-5.676;2023-05-23T03:13:39;101792.13;;;15.86;nan
71638;BME280;59485;43.542;-5.676;2023-05-23T03:16:05;101799.56;;;15.85;nan
71638;BME280;59485;43.542;-5.676;2023-05-23T03:18:30;101790.16;;;15.80;nan
71638;BME280;59485;43.542;-5.676;2023-05-23T03:20:56;101804.69;;;15.88;nan
71638;BME280;59485;43.542;-5.676;2023-05-23T03:23:21;101792.75;;;15.81;nan
71638;BME280;59485;43.542;-5.676;2023-05-23T03:25:47;101788.94;;;15.82;nan
71638;BME280;59485;43.542;-5.676;2023-05-23T03:28:13;101804.75;;;15.95;nan
71638;BME280;59485;43.542;-5.676;2023-05-23T03:30:39;101806.94;;;15.99;nan
71638;BME280;59485;43.542;-5.676;2023-05-23T03:33:05;101807.78;;;16.00;nan
71638;BME280;59485;43.542;-5.676;2023-05-23T03:35:31;101806.47;;;15.96;nan
71638;BME280;59485;43.542;-5.676;2023-05-23T03:37:57;101798.38;;;15.94;nan
71638;BME280;59485;43.542;-5.676;2023-05-23T03:40:22;101801.78;;;15.96;nan
71638;BME280;59485;43.542;-5.676;2023-05-23T03:43:00;101797.78;;;15.99;nan
71638;BME280;59485;43.542;-5.676;2023-05-23T03:45:26;101801.41;;;15.99;nan
71638;BME280;59485;43.542;-5.676;2023-05-23T03:47:51;101791.38;;;15.98;nan
71638;BME280;59485;43.542;-5.676;2023-05-23T03:50:17;101799.50;;;16.00;nan
71638;BME280;59485;43.542;-5.676;2023-05-23T03:52:42;101811.41;;;16.00;nan
71638;BME280;59485;43.542;-5.676;2023-05-23T03:55:08;101810.75;;;15.98;nan
71638;BME280;59485;43.542;-5.676;2023-05-23T03:57:35;101812.81;;;15.90;nan
71638;BME280;59485;43.542;-5.676;2023-05-23T04:00:03;101817.88;;;15.86;nan
71638;BME280;59485;43.542;-5.676;2023-05-23T04:02:30;101821.06;;;15.83;nan
71638;BME280;59485;43.542;-5.676;2023-05-23T04:04:56;101816.50;;;15.75;nan
71638;BME280;59485;43.542;-5.676;2023-05-23T04:07:22;101819.72;;;15.79;nan
71638;BME280;59485;43.542;-5.676;2023-05-23T04:09:50;101817.34;;;15.76;nan
71638;BME280;59485;43.542;-5.676;2023-05-23T04:12:16;101819.06;;;15.77;nan
71638;BME280;59485;43.542;-5.676;2023-05-23T04:14:41;101817.81;;;15.80;nan
71638;BME280;59485;43.542;-5.676;2023-05-23T04:17:07;101809.06;;;15.76;nan
71638;BME280;59485;43.542;-5.676;2023-05-23T04:19:33;101802.03;;;15.73;nan
71638;BME280;59485;43.542;-5.676;2023-05-23T04:21:59;101802.28;;;15.79;nan
71638;BME280;59485;43.542;-5.676;2023-05-23T04:24:24;101787.16;;;15.74;nan
71638;BME280;59485;43.542;-5.676;2023-05-23T04:26:50;101805.28;;;15.84;nan
71638;BME280;59485;43.542;-5.676;2023-05-23T04:29:15;101798.66;;;15.78;nan
71638;BME280;59485;43.542;-5.676;2023-05-23T04:31:41;101784.13;;;15.69;nan
71638;BME280;59485;43.542;-5.676;2023-05-23T04:34:10;101796.94;;;15.77;nan
71638;BME280;59485;43.542;-5.676;2023-05-23T04:36:35;101776.69;;;15.70;nan
71638;BME280;59485;43.542;-5.676;2023-05-23T04:39:05;101787.94;;;15.68;nan
71638;BME280;59485;43.542;-5.676;2023-05-23T04:41:31;101774.25;;;15.60;nan
71638;BME280;59485;43.542;-5.676;2023-05-23T04:43:56;101761.50;;;15.59;nan
71638;BME280;59485;43.542;-5.676;2023-05-23T04:46:22;101783.97;;;15.77;nan
71638;BME280;59485;43.542;-5.676;2023-05-23T04:48:52;101798.56;;;15.93;nan
71638;BME280;59485;43.542;-5.676;2023-05-23T04:51:18;101810.91;;;15.90;nan
71638;BME280;59485;43.542;-5.676;2023-05-23T04:53:46;101787.00;;;15.83;nan
71638;BME280;59485;43.542;-5.676;2023-05-23T04:56:11;101802.59;;;15.90;nan
71638;BME280;59485;43.542;-5.676;2023-05-23T04:58:37;101775.94;;;15.83;nan
71638;BME280;59485;43.542;-5.676;2023-05-23T05:01:04;101798.31;;;15.88;nan
71638;BME280;59485;43.542;-5.676;2023-05-23T05:03:30;101790.22;;;15.86;nan
71638;BME280;59485;43.542;-5.676;2023-05-23T05:05:56;101802.84;;;15.95;nan
71638;BME280;59485;43.542;-5.676;2023-05-23T05:08:22;101793.25;;;15.91;nan
71638;BME280;59485;43.542;-5.676;2023-05-23T05:10:47;101791.38;;;15.98;nan
71638;BME280;59485;43.542;-5.676;2023-05-23T05:13:13;101795.00;;;15.99;nan
71638;BME280;59485;43.542;-5.676;2023-05-23T05:15:38;101807.38;;;16.03;nan
71638;BME280;59485;43.542;-5.676;2023-05-23T05:18:04;101786.44;;;15.94;nan
71638;BME280;59485;43.542;-5.676;2023-05-23T05:20:32;101788.78;;;15.90;nan
71638;BME280;59485;43.542;-5.676;2023-05-23T05:22:58;101796.28;;;16.03;nan
71638;BME280;59485;43.542;-5.676;2023-05-23T05:25:25;101796.09;;;16.04;nan
71638;BME280;59485;43.542;-5.676;2023-05-23T05:27:52;101812.03;;;16.02;nan
71638;BME280;59485;43.542;-5.676;2023-05-23T05:30:17;101807.78;;;16.00;nan
71638;BME280;59485;43.542;-5.676;2023-05-23T05:32:43;101805.03;;;16.00;nan
71638;BME280;59485;43.542;-5.676;2023-05-23T05:35:10;101808.88;;;16.05;nan
71638;BME280;59485;43.542;-5.676;2023-05-23T05:40:20;101808.69;;;16.07;nan
71638;BME280;59485;43.542;-5.676;2023-05-23T05:42:46;101786.44;;;15.94;nan
71638;BME280;59485;43.542;-5.676;2023-05-23T05:45:12;101810.84;;;16.11;nan
71638;BME280;59485;43.542;-5.676;2023-05-23T05:47:37;101807.28;;;16.18;nan
71638;BME280;59485;43.542;-5.676;2023-05-23T05:50:04;101800.03;;;16.17;nan
71638;BME280;59485;43.542;-5.676;2023-05-23T05:52:31;101800.88;;;16.17;nan
71638;BME280;59485;43.542;-5.676;2023-05-23T05:54:56;101797.25;;;16.17;nan
71638;BME280;59485;43.542;-5.676;2023-05-23T05:57:22;101807.72;;;16.21;nan
71638;BME280;59485;43.542;-5.676;2023-05-23T05:59:47;101790.47;;;16.19;nan
71638;BME280;59485;43.542;-5.676;2023-05-23T06:02:13;101805.22;;;16.26;nan
71638;BME280;59485;43.542;-5.676;2023-05-23T06:04:38;101784.09;;;16.19;nan
71638;BME280;59485;43.542;-5.676;2023-05-23T06:07:07;101802.44;;;16.26;nan
71638;BME280;59485;43.542;-5.676;2023-05-23T06:09:32;101779.13;;;16.07;nan
71638;BME280;59485;43.542;-5.676;2023-05-23T06:11:59;101808.63;;;16.28;nan
71638;BME280;59485;43.542;-5.676;2023-05-23T06:14:29;101782.56;;;16.16;nan
71638;BME280;59485;43.542;-5.676;2023-05-23T06:16:54;101778.94;;;16.16;nan
71638;BME280;59485;43.542;-5.676;2023-05-23T06:19:20;101795.63;;;16.29;nan
71638;BME280;59485;43.542;-5.676;2023-05-23T06:21:45;101795.44;;;16.30;nan
71638;BME280;59485;43.542;-5.676;2023-05-23T06:24:11;101794.56;;;16.30;nan
71638;BME280;59485;43.542;-5.676;2023-05-23T06:26:36;101779.44;;;16.26;nan
71638;BME280;59485;43.542;-5.676;2023-05-23T06:29:03;101803.78;;;16.37;nan
71638;BME280;59485;43.542;-5.676;2023-05-23T06:31:28;101800.16;;;16.36;nan
71638;BME280;59485;43.542;-5.676;2023-05-23T06:36:23;101796.97;;;16.39;nan
71638;BME280;59485;43.542;-5.676;2023-05-23T06:38:48;101791.00;;;16.36;nan
71638;BME280;59485;43.542;-5.676;2023-05-23T06:41:14;101795.72;;;16.42;nan
71638;BME280;59485;43.542;-5.676;2023-05-23T06:43:39;101794.03;;;16.47;nan
71638;BME280;59485;43.542;-5.676;2023-05-23T06:46:05;101795.94;;;16.47;nan
71638;BME280;59485;43.542;-5.676;2023-05-23T06:48:31;101818.88;;;16.62;nan
71638;BME280;59485;43.542;-5.676;2023-05-23T06:50:56;101816.72;;;16.64;nan
71638;BME280;59485;43.542;-5.676;2023-05-23T06:53:22;101821.88;;;16.67;nan
71638;BME280;59485;43.542;-5.676;2023-05-23T06:55:47;101812.91;;;16.65;nan
71638;BME280;59485;43.542;-5.676;2023-05-23T06:58:13;101801.75;;;16.52;nan
71638;BME280;59485;43.542;-5.676;2023-05-23T07:03:05;101814.75;;;16.58;nan
71638;BME280;59485;43.542;-5.676;2023-05-23T07:05:31;101825.91;;;16.65;nan
71638;BME280;59485;43.542;-5.676;2023-05-23T07:07:57;101810.75;;;16.61;nan
71638;BME280;59485;43.542;-5.676;2023-05-23T07:10:22;101808.56;;;16.56;nan
71638;BME280;59485;43.542;-5.676;2023-05-23T07:12:48;101823.72;;;16.60;nan
71638;BME280;59485;43.542;-5.676;2023-05-23T07:15:14;101829.53;;;16.65;nan
71638;BME280;59485;43.542;-5.676;2023-05-23T07:17:40;101823.38;;;16.70;nan
71638;BME280;59485;43.542;-5.676;2023-05-23T07:20:06;101813.13;;;16.64;nan
71638;BME280;59485;43.542;-5.676;2023-05-23T07:22:32;101812.91;;;16.65;nan
71638;BME280;59485;43.542;-5.676;2023-05-23T07:24:58;101828.09;;;16.76;nan
71638;BME280;59485;43.542;-5.676;2023-05-23T07:27:23;101820.41;;;16.71;nan
71638;BME280;59485;43.542;-5.676;2023-05-23T07:29:49;101809.88;;;16.60;nan
71638;BME280;59485;43.542;-5.676;2023-05-23T07:32:15;101826.56;;;16.73;nan
71638;BME280;59485;43.542;-5.676;2023-05-23T07:34:40;101821.94;;;16.80;nan
71638;BME280;59485;43.542;-5.676;2023-05-23T07:37:06;101815.97;;;16.77;nan
71638;BME280;59485;43.542;-5.676;2023-05-23T07:39:31;101829.03;;;16.90;nan
71638;BME280;59485;43.542;-5.676;2023-05-23T07:41:57;101815.59;;;16.86;nan
71638;BME280;59485;43.542;-5.676;2023-05-23T07:44:22;101834.81;;;17.01;nan
71638;BME280;59485;43.542;-5.676;2023-05-23T07:46:48;101829.72;;;17.05;nan
71638;BME280;59485;43.542;-5.676;2023-05-23T07:49:13;101825.03;;;17.05;nan
71638;BME280;59485;43.542;-5.676;2023-05-23T07:51:39;101826.75;;;17.06;nan
71638;BME280;59485;43.542;-5.676;2023-05-23T07:54:06;101833.16;;;17.20;nan
71638;BME280;59485;43.542;-5.676;2023-05-23T07:56:31;101820.38;;;17.12;nan
71638;BME280;59485;43.542;-5.676;2023-05-23T07:58:57;101829.34;;;17.21;nan
71638;BME280;59485;43.542;-5.676;2023-05-23T08:01:22;101830.84;;;17.23;nan
71638;BME280;59485;43.542;-5.676;2023-05-23T08:03:49;101830.38;;;17.13;nan
71638;BME280;59485;43.542;-5.676;2023-05-23T08:06:16;101830.41;;;17.20;nan
71638;BME280;59485;43.542;-5.676;2023-05-23T08:08:42;101822.56;;;17.30;nan
71638;BME280;59485;43.542;-5.676;2023-05-23T08:11:08;101821.69;;;17.30;nan
71638;BME280;59485;43.542;-5.676;2023-05-23T08:13:33;101823.19;;;17.25;nan
71638;BME280;59485;43.542;-5.676;2023-05-23T08:15:59;101826.84;;;17.39;nan
71638;BME280;59485;43.542;-5.676;2023-05-23T08:18:25;101827.28;;;17.49;nan
71638;BME280;59485;43.542;-5.676;2023-05-23T08:20:50;101836.69;;;17.55;nan
71638;BME280;59485;43.542;-5.676;2023-05-23T08:23:16;101834.50;;;17.37;nan
71638;BME280;59485;43.542;-5.676;2023-05-23T08:25:42;101829.00;;;17.44;nan
71638;BME280;59485;43.542;-5.676;2023-05-23T08:28:08;101822.34;;;17.38;nan
71638;BME280;59485;43.542;-5.676;2023-05-23T08:30:33;101821.31;;;17.46;nan
71638;BME280;59485;43.542;-5.676;2023-05-23T08:32:59;101830.50;;;17.59;nan
71638;BME280;59485;43.542;-5.676;2023-05-23T08:35:25;101830.75;;;17.65;nan
71638;BME280;59485;43.542;-5.676;2023-05-23T08:37:53;101833.53;;;17.65;nan
71638;BME280;59485;43.542;-5.676;2023-05-23T08:40:21;101840.38;;;17.75;nan
71638;BME280;59485;43.542;-5.676;2023-05-23T08:42:47;101835.06;;;17.87;nan
71638;BME280;59485;43.542;-5.676;2023-05-23T08:45:13;101825.25;;;17.78;nan
71638;BME280;59485;43.542;-5.676;2023-05-23T08:47:42;101828.88;;;17.85;nan
71638;BME280;59485;43.542;-5.676;2023-05-23T08:50:18;101834.38;;;17.65;nan
71638;BME280;59485;43.542;-5.676;2023-05-23T08:52:58;101839.09;;;17.71;nan
71638;BME280;59485;43.542;-5.676;2023-05-23T08:55:28;101832.06;;;17.82;nan
71638;BME280;59485;43.542;-5.676;2023-05-23T08:57:56;101832.69;;;17.84;nan
71638;BME280;59485;43.542;-5.676;2023-05-23T09:00:22;101832.06;;;17.95;nan
71638;BME280;59485;43.542;-5.676;2023-05-23T09:02:49;101831.84;;;18.03;nan
71638;BME280;59485;43.542;-5.676;2023-05-23T09:05:16;101827.78;;;17.99;nan
71638;BME280;59485;43.542;-5.676;2023-05-23T09:07:44;101827.59;;;18.07;nan
71638;BME280;59485;43.542;-5.676;2023-05-23T09:10:12;101832.50;;;17.85;nan
71638;BME280;59485;43.542;-5.676;2023-05-23T09:12:38;101829.50;;;18.00;nan
71638;BME280;59485;43.542;-5.676;2023-05-23T09:15:07;101825.88;;;17.99;nan
71638;BME280;59485;43.542;-5.676;2023-05-23T09:17:33;101836.75;;;18.08;nan
71638;BME280;59485;43.542;-5.676;2023-05-23T09:20:00;101827.59;;;17.87;nan
71638;BME280;59485;43.542;-5.676;2023-05-23T09:22:27;101841.66;;;17.92;nan
71638;BME280;59485;43.542;-5.676;2023-05-23T09:24:56;101855.13;;;17.95;nan
71638;BME280;59485;43.542;-5.676;2023-05-23T09:27:22;101849.56;;;17.82;nan
71638;BME280;59485;43.542;-5.676;2023-05-23T09:29:50;101842.69;;;17.72;nan
71638;BME280;59485;43.542;-5.676;2023-05-23T09:32:17;101840.63;;;17.80;nan
71638;BME280;59485;43.542;-5.676;2023-05-23T09:34:57;101839.09;;;17.84;nan
71638;BME280;59485;43.542;-5.676;2023-05-23T09:37:34;101844.22;;;17.94;nan
71638;BME280;59485;43.542;-5.676;2023-05-23T09:40:00;101844.22;;;17.94;nan
71638;BME280;59485;43.542;-5.676;2023-05-23T09:42:32;101854.91;;;17.97;nan
71638;BME280;59485;43.542;-5.676;2023-05-23T09:44:59;101848.31;;;17.98;nan
71638;BME280;59485;43.542;-5.676;2023-05-23T09:47:24;101847.00;;;17.94;nan
71638;BME280;59485;43.542;-5.676;2023-05-23T09:49:51;101846.56;;;17.90;nan
71638;BME280;59485;43.542;-5.676;2023-05-23T09:52:17;101859.16;;;17.99;nan
71638;BME280;59485;43.542;-5.676;2023-05-23T09:54:45;101841.00;;;17.90;nan
71638;BME280;59485;43.542;-5.676;2023-05-23T09:57:11;101845.72;;;17.90;nan
71638;BME280;59485;43.542;-5.676;2023-05-23T09:59:40;101870.50;;;17.98;nan
71638;BME280;59485;43.542;-5.676;2023-05-23T10:02:07;101870.69;;;17.90;nan
71638;BME280;59485;43.542;-5.676;2023-05-23T10:04:36;101875.16;;;17.91;nan
71638;BME280;59485;43.542;-5.676;2023-05-23T10:07:09;101864.47;;;17.81;nan
71638;BME280;59485;43.542;-5.676;2023-05-23T10:09:38;101867.06;;;17.89;nan
71638;BME280;59485;43.542;-5.676;2023-05-23T10:14:51;101866.63;;;17.86;nan
71638;BME280;59485;43.542;-5.676;2023-05-23T10:17:32;101873.47;;;17.96;nan
71638;BME280;59485;43.542;-5.676;2023-05-23T10:20:09;101855.53;;;17.86;nan
71638;BME280;59485;43.542;-5.676;2023-05-23T10:22:37;101876.47;;;17.95;nan
71638;BME280;59485;43.542;-5.676;2023-05-23T10:25:03;101862.19;;;17.98;nan
71638;BME280;59485;43.542;-5.676;2023-05-23T10:27:30;101865.16;;;18.10;nan
71638;BME280;59485;43.542;-5.676;2023-05-23T10:29:57;101861.53;;;18.03;nan
71638;BME280;59485;43.542;-5.676;2023-05-23T10:32:24;101861.94;;;17.99;nan
71638;BME280;59485;43.542;-5.676;2023-05-23T10:34:55;101877.31;;;18.02;nan
71638;BME280;59485;43.542;-5.676;2023-05-23T10:37:58;101876.03;;;18.11;nan
71638;BME280;59485;43.542;-5.676;2023-05-23T10:40:47;101880.53;;;18.12;nan
71638;BME280;59485;43.542;-5.676;2023-05-23T10:43:23;101864.72;;;18.13;nan
71638;BME280;59485;43.542;-5.676;2023-05-23T10:45:50;101867.50;;;18.13;nan
71638;BME280;59485;43.542;-5.676;2023-05-23T10:48:33;101867.50;;;18.19;nan
71638;BME280;59485;43.542;-5.676;2023-05-23T10:51:13;101864.09;;;18.24;nan
71638;BME280;59485;43.542;-5.676;2023-05-23T10:53:44;101849.13;;;18.18;nan
71638;BME280;59485;43.542;-5.676;2023-05-23T10:56:19;101864.69;;;18.46;nan
71638;BME280;59485;43.542;-5.676;2023-05-23T10:58:56;101857.63;;;18.43;nan
71638;BME280;59485;43.542;-5.676;2023-05-23T11:01:23;101858.06;;;18.47;nan
71638;BME280;59485;43.542;-5.676;2023-05-23T11:03:50;101857.47;;;18.58;nan
71638;BME280;59485;43.542;-5.676;2023-05-23T11:06:39;101859.38;;;18.51;nan
71638;BME280;59485;43.542;-5.676;2023-05-23T11:09:15;101852.97;;;18.57;nan
71638;BME280;59485;43.542;-5.676;2023-05-23T11:12:02;101858.31;;;18.58;nan
71638;BME280;59485;43.542;-5.676;2023-05-23T11:14:33;101860.44;;;18.50;nan
71638;BME280;59485;43.542;-5.676;2023-05-23T11:17:00;101844.19;;;18.47;nan
71638;BME280;59485;43.542;-5.676;2023-05-23T11:19:54;101848.69;;;18.28;nan
71638;BME280;59485;43.542;-5.676;2023-05-23T11:22:21;101855.97;;;18.03;nan
71638;BME280;59485;43.542;-5.676;2023-05-23T11:24:53;101864.50;;;18.08;nan
71638;BME280;59485;43.542;-5.676;2023-05-23T11:30:16;101852.53;;;18.27;nan
71638;BME280;59485;43.542;-5.676;2023-05-23T11:32:50;101854.69;;;18.31;nan
71638;BME280;59485;43.542;-5.676;2023-05-23T11:35:16;101846.78;;;18.28;nan
71638;BME280;59485;43.542;-5.676;2023-05-23T11:37:42;101857.25;;;18.33;nan
71638;BME280;59485;43.542;-5.676;2023-05-23T11:40:28;101864.94;;;18.31;nan
71638;BME280;59485;43.542;-5.676;2023-05-23T11:42:54;101860.25;;;18.25;nan
71638;BME280;59485;43.542;-5.676;2023-05-23T11:45:26;101866.22;;;18.28;nan
71638;BME280;59485;43.542;-5.676;2023-05-23T11:47:52;101861.94;;;18.19;nan
71638;BME280;59485;43.542;-5.676;2023-05-23T11:50:18;101875.81;;;18.46;nan
71638;BME280;59485;43.542;-5.676;2023-05-23T11:52:45;101864.28;;;18.49;nan
71638;BME280;59485;43.542;-5.676;2023-05-23T11:55:16;101858.69;;;18.55;nan
71638;BME280;59485;43.542;-5.676;2023-05-23T11:57:42;101846.28;;;18.71;nan
71638;BME280;59485;43.542;-5.676;2023-05-23T12:00:11;101854.69;;;18.58;nan
71638;BME280;59485;43.542;-5.676;2023-05-23T12:02:41;101847.00;;;18.60;nan
71638;BME280;59485;43.542;-5.676;2023-05-23T12:05:11;101855.31;;;18.60;nan
71638;BME280;59485;43.542;-5.676;2023-05-23T12:07:45;101854.66;;;18.45;nan
71638;BME280;59485;43.542;-5.676;2023-05-23T12:10:14;101858.75;;;18.42;nan
71638;BME280;59485;43.542;-5.676;2023-05-23T12:12:41;101859.34;;;18.44;nan
71638;BME280;59485;43.542;-5.676;2023-05-23T12:15:10;101855.31;;;18.40;nan
71638;BME280;59485;43.542;-5.676;2023-05-23T12:17:37;101860.88;;;18.40;nan
71638;BME280;59485;43.542;-5.676;2023-05-23T12:20:04;101865.16;;;18.43;nan
71638;BME280;59485;43.542;-5.676;2023-05-23T12:22:30;101862.81;;;18.33;nan
71638;BME280;59485;43.542;-5.676;2023-05-23T12:24:56;101870.06;;;18.41;nan
71638;BME280;59485;43.542;-5.676;2023-05-23T12:27:34;101865.16;;;18.43;nan
71638;BME280;59485;43.542;-5.676;2023-05-23T12:30:06;101870.03;;;18.47;nan
71638;BME280;59485;43.542;-5.676;2023-05-23T12:32:32;101860.22;;;18.51;nan
71638;BME280;59485;43.542;-5.676;2023-05-23T12:34:58;101870.69;;;18.69;nan
71638;BME280;59485;43.542;-5.676;2023-05-23T12:37:23;101875.56;;;18.87;nan
71638;BME280;59485;43.542;-5.676;2023-05-23T12:39:50;101870.63;;;18.82;nan
71638;BME280;59485;43.542;-5.676;2023-05-23T12:42:15;101868.44;;;19.04;nan
71638;BME280;59485;43.542;-5.676;2023-05-23T12:44:41;101863.94;;;19.03;nan
71638;BME280;59485;43.542;-5.676;2023-05-23T12:47:08;101860.25;;;19.16;nan
71638;BME280;59485;43.542;-5.676;2023-05-23T12:49:34;101857.47;;;19.22;nan
71638;BME280;59485;43.542;-5.676;2023-05-23T12:52:01;101860.75;;;19.44;nan
71638;BME280;59485;43.542;-5.676;2023-05-23T12:54:27;101856.66;;;19.53;nan
71638;BME280;59485;43.542;-5.676;2023-05-23T12:56:53;101819.34;;;19.29;nan
71638;BME280;59485;43.542;-5.676;2023-05-23T12:59:19;101848.28;;;19.60;nan
71638;BME280;59485;43.542;-5.676;2023-05-23T13:01:44;101850.47;;;19.82;nan
71638;BME280;59485;43.542;-5.676;2023-05-23T13:04:10;101849.78;;;19.87;nan
71638;BME280;59485;43.542;-5.676;2023-05-23T13:06:35;101855.94;;;19.96;nan
71638;BME280;59485;43.542;-5.676;2023-05-23T13:09:01;101844.41;;;20.17;nan
71638;BME280;59485;43.542;-5.676;2023-05-23T13:11:27;101841.00;;;20.15;nan
71638;BME280;59485;43.542;-5.676;2023-05-23T13:13:52;101839.78;;;20.11;nan
71638;BME280;59485;43.542;-5.676;2023-05-23T13:16:18;101825.78;;;19.93;nan
71638;BME280;59485;43.542;-5.676;2023-05-23T13:18:44;101842.50;;;19.93;nan
71638;BME280;59485;43.542;-5.676;2023-05-23T13:21:09;101837.63;;;20.13;nan
71638;BME280;59485;43.542;-5.676;2023-05-23T13:23:35;101841.88;;;20.40;nan
71638;BME280;59485;43.542;-5.676;2023-05-23T13:26:03;101843.50;;;20.23;nan
71638;BME280;59485;43.542;-5.676;2023-05-23T13:28:29;101840.50;;;20.24;nan
71638;BME280;59485;43.542;-5.676;2023-05-23T13:30:54;101827.03;;;20.21;nan
71638;BME280;59485;43.542;-5.676;2023-05-23T13:33:20;101827.56;;;20.12;nan
71638;BME280;59485;43.542;-5.676;2023-05-23T13:35:49;101832.91;;;20.32;nan
71638;BME280;59485;43.542;-5.676;2023-05-23T13:38:17;101830.66;;;19.97;nan
71638;BME280;59485;43.542;-5.676;2023-05-23T13:40:43;101821.59;;;20.08;nan
71638;BME280;59485;43.542;-5.676;2023-05-23T13:43:08;101804.41;;;19.86;nan
71638;BME280;59485;43.542;-5.676;2023-05-23T13:45:34;101823.66;;;19.95;nan
71638;BME280;59485;43.542;-5.676;2023-05-23T13:48:00;101839.78;;;20.11;nan
71638;BME280;59485;43.542;-5.676;2023-05-23T13:50:25;101837.72;;;20.00;nan
71638;BME280;59485;43.542;-5.676;2023-05-23T13:52:51;101837.16;;;19.91;nan
71638;BME280;59485;43.542;-5.676;2023-05-23T13:55:17;101842.72;;;20.16;nan
71638;BME280;59485;43.542;-5.676;2023-05-23T13:57:43;101838.56;;;20.25;nan
71638;BME280;59485;43.542;-5.676;2023-05-23T14:00:09;101837.78;;;20.43;nan
71638;BME280;59485;43.542;-5.676;2023-05-23T14:02:35;101824.19;;;20.53;nan
71638;BME280;59485;43.542;-5.676;2023-05-23T14:05:30;101797.16;;;20.10;nan
71638;BME280;59485;43.542;-5.676;2023-05-23T14:07:56;101772.19;;;20.04;nan
71638;BME280;59485;43.542;-5.676;2023-05-23T14:10:22;101795.56;;;20.21;nan
71638;BME280;59485;43.542;-5.676;2023-05-23T14:12:50;101826.41;;;20.44;nan
71638;BME280;59485;43.542;-5.676;2023-05-23T14:15:18;101826.50;;;20.56;nan
71638;BME280;59485;43.542;-5.676;2023-05-23T14:17:44;101789.19;;;20.14;nan